Strona główna
METAR-TAF:

METAR-TAF

Lotnisko :

RAF

Holbeach, Anglia

Szerokość geograficzna: 52-52N, Długość geograficzna: 000-09E, wysokość: 3 m

Aktualna obserwacja pogody

Raport powstał 19 godziny i 41 minut temu, godzina 13:50 UTC
Wiatr 21 kt od północno-północny wschód
Temperatura 15°C
Wilgotność 77%
Ciśnienie 1009 hPa
Widzialność 10 km lub więcej
Przerywane chmury na wysokości 1800 ft

METAR: EGYH 031350Z 03021KT 9999 BKN018 15/11 Q1009 RMK WHT

czas: 10:31 (09:31 UTC)


TAF: brakujący

Obserwacja i prognoza pogody dla ponad 4000 lotnisk (raport METAR i TAF).

Dostępne stacje oznaczono żółtymi i czerwonymi punktami na mapie.

Najedź kursorem aby zobaczyć nazwę stacji.

Kliknij aby zobaczyć obserwacje i prognozy pogody.

Aby zmienić mapę: kliknij na zielony przycisk z czarnym krzyżykiem, aby powiększyć; na zielony przycisk z myślnikiem, aby pomniejszyć; na zielone strzałki, aby przejść do map sąsiednich.


METAR-TAF: